createdAt,value
2023-02-27T00:01:09.261Z,1.77
2023-02-27T00:03:37.470Z,1.40
2023-02-27T00:06:06.164Z,1.65
2023-02-27T00:08:35.735Z,1.65
2023-02-27T00:11:04.037Z,1.60
2023-02-27T00:13:32.535Z,1.38
2023-02-27T00:16:00.679Z,1.50
2023-02-27T00:18:28.881Z,1.55
2023-02-27T00:20:57.452Z,1.33
2023-02-27T00:23:25.739Z,1.23
2023-02-27T00:25:56.412Z,1.70
2023-02-27T00:28:26.527Z,1.50
2023-02-27T00:30:54.839Z,1.40
2023-02-27T00:33:23.572Z,1.30
2023-02-27T00:35:57.364Z,1.70
2023-02-27T00:38:25.665Z,1.50
2023-02-27T00:40:55.516Z,1.60
2023-02-27T00:43:23.988Z,1.35
2023-02-27T00:45:52.158Z,1.50
2023-02-27T00:48:21.012Z,1.13
2023-02-27T00:50:51.055Z,1.60
2023-02-27T00:53:19.184Z,1.48
2023-02-27T00:55:47.675Z,1.80
2023-02-27T00:58:17.455Z,1.50
2023-02-27T01:00:45.747Z,1.67
2023-02-27T01:03:14.464Z,1.80
2023-02-27T01:05:42.831Z,2.03
2023-02-27T01:08:10.988Z,1.20
2023-02-27T01:10:41.577Z,1.40
2023-02-27T01:13:11.266Z,1.48
2023-02-27T01:15:41.257Z,1.33
2023-02-27T01:18:09.470Z,1.30
2023-02-27T01:20:37.906Z,1.33
2023-02-27T01:23:06.173Z,1.75
2023-02-27T01:25:34.760Z,1.60
2023-02-27T01:28:03.228Z,1.60
2023-02-27T01:30:31.574Z,1.33
2023-02-27T01:33:01.320Z,1.70
2023-02-27T01:35:29.568Z,1.35
2023-02-27T01:37:58.119Z,1.73
2023-02-27T01:40:26.849Z,1.52
2023-02-27T01:42:55.596Z,1.23
2023-02-27T01:45:33.932Z,1.67
2023-02-27T01:48:12.002Z,1.45
2023-02-27T01:50:46.053Z,1.45
2023-02-27T01:53:14.771Z,1.48
2023-02-27T01:55:43.858Z,1.45
2023-02-27T01:58:14.473Z,1.40
2023-02-27T02:00:42.975Z,1.40
2023-02-27T02:03:22.649Z,1.48
2023-02-27T02:05:53.472Z,1.60
2023-02-27T02:08:23.104Z,1.40
2023-02-27T02:10:53.825Z,2.30
2023-02-27T02:13:23.807Z,1.92
2023-02-27T02:16:06.080Z,1.63
2023-02-27T02:18:48.693Z,1.70
2023-02-27T02:22:07.676Z,1.80
2023-02-27T02:25:14.748Z,1.75
2023-02-27T02:27:57.684Z,1.65
2023-02-27T02:31:04.641Z,1.93
2023-02-27T02:33:51.744Z,1.90
2023-02-27T02:36:58.504Z,1.77
2023-02-27T02:40:02.674Z,1.88
2023-02-27T02:42:38.217Z,1.80
2023-02-27T02:45:15.088Z,1.90
2023-02-27T02:47:54.641Z,1.70
2023-02-27T02:50:29.928Z,1.70
2023-02-27T02:53:07.579Z,2.10
2023-02-27T02:55:42.416Z,2.13
2023-02-27T02:58:17.024Z,1.80
2023-02-27T03:00:50.636Z,2.22
2023-02-27T03:05:54.756Z,1.90
2023-02-27T03:08:27.084Z,2.20
2023-02-27T03:10:59.646Z,1.90
2023-02-27T03:13:32.399Z,1.58
2023-02-27T03:16:08.855Z,1.83
2023-02-27T03:18:41.958Z,2.13
2023-02-27T03:21:17.868Z,2.13
2023-02-27T03:23:48.678Z,2.30
2023-02-27T03:26:22.021Z,1.83
2023-02-27T03:28:57.360Z,2.53
2023-02-27T03:31:32.401Z,2.05
2023-02-27T03:34:05.800Z,1.83
2023-02-27T03:36:43.153Z,1.90
2023-02-27T03:39:22.762Z,2.10
2023-02-27T03:41:56.293Z,2.00
2023-02-27T03:46:56.576Z,1.85
2023-02-27T03:49:25.125Z,2.35
2023-02-27T03:51:53.564Z,2.53
2023-02-27T03:54:27.166Z,2.53
2023-02-27T03:59:28.938Z,2.25
2023-02-27T04:01:58.979Z,2.03
2023-02-27T04:04:28.753Z,2.38
2023-02-27T04:07:20.800Z,2.38
2023-02-27T04:10:17.732Z,2.33
2023-02-27T04:13:16.292Z,2.20
2023-02-27T04:16:05.452Z,2.00
2023-02-27T04:18:52.373Z,2.30
2023-02-27T04:21:26.576Z,2.42
2023-02-27T04:24:00.453Z,2.40
2023-02-27T04:26:33.373Z,2.60
2023-02-27T04:29:07.278Z,2.40
2023-02-27T04:31:44.675Z,2.28
2023-02-27T04:34:19.913Z,2.10
2023-02-27T04:36:54.556Z,2.75
2023-02-27T04:39:27.796Z,3.95
2023-02-27T04:42:00.966Z,2.20
2023-02-27T04:44:33.860Z,2.45
2023-02-27T04:47:03.351Z,2.85
2023-02-27T04:49:36.583Z,2.28
2023-02-27T04:52:11.691Z,3.15
2023-02-27T04:54:44.669Z,2.35
2023-02-27T04:57:18.105Z,3.28
2023-02-27T04:59:53.665Z,2.92
2023-02-27T05:02:26.532Z,2.90
2023-02-27T05:04:59.193Z,3.10
2023-02-27T05:07:33.491Z,2.90
2023-02-27T05:10:06.366Z,2.88
2023-02-27T05:12:40.215Z,2.47
2023-02-27T05:15:14.607Z,2.53
2023-02-27T05:17:48.682Z,2.67
2023-02-27T05:20:18.544Z,2.65
2023-02-27T05:22:50.800Z,3.08
2023-02-27T05:25:29.330Z,2.70
2023-02-27T05:28:04.070Z,3.25
2023-02-27T05:30:37.766Z,2.58
2023-02-27T05:33:12.922Z,2.92
2023-02-27T05:35:49.299Z,3.22
2023-02-27T05:38:23.413Z,2.95
2023-02-27T05:40:55.860Z,3.20
2023-02-27T05:43:29.244Z,3.45
2023-02-27T05:46:04.033Z,3.45
2023-02-27T05:48:36.163Z,2.97
2023-02-27T05:51:07.082Z,2.97
2023-02-27T05:53:41.294Z,3.15
2023-02-27T05:56:10.937Z,3.65
2023-02-27T05:58:44.439Z,3.47
2023-02-27T06:03:42.978Z,3.80
2023-02-27T06:06:15.549Z,4.13
2023-02-27T06:08:44.004Z,4.07
2023-02-27T06:11:13.265Z,4.35
2023-02-27T06:13:42.180Z,4.30
2023-02-27T06:16:13.725Z,5.05
2023-02-27T06:18:42.094Z,6.22
2023-02-27T06:21:10.538Z,6.07
2023-02-27T06:23:38.719Z,6.32
2023-02-27T06:26:07.226Z,5.75
2023-02-27T06:28:35.540Z,5.68
2023-02-27T06:31:03.743Z,5.30
2023-02-27T06:33:33.410Z,4.57
2023-02-27T06:36:01.814Z,5.22
2023-02-27T06:38:30.046Z,4.93
2023-02-27T06:40:58.973Z,5.32
2023-02-27T06:43:27.674Z,5.50
2023-02-27T06:45:56.401Z,5.03
2023-02-27T06:48:24.836Z,4.90
2023-02-27T06:50:56.355Z,5.03
2023-02-27T06:53:25.147Z,4.60
2023-02-27T06:55:53.452Z,5.05
2023-02-27T06:58:21.990Z,4.88
2023-02-27T07:00:50.223Z,4.82
2023-02-27T07:03:18.493Z,4.70
2023-02-27T07:05:47.065Z,4.70
2023-02-27T07:08:17.571Z,4.30
2023-02-27T07:10:47.337Z,4.50
2023-02-27T07:13:18.450Z,4.53
2023-02-27T07:15:47.774Z,4.82
2023-02-27T07:18:16.469Z,4.30
2023-02-27T07:20:44.716Z,4.20
2023-02-27T07:23:12.903Z,4.65
2023-02-27T07:25:42.871Z,4.93
2023-02-27T07:28:11.106Z,5.05
2023-02-27T07:30:39.344Z,5.00
2023-02-27T07:33:07.742Z,4.53
2023-02-27T07:35:36.745Z,4.70
2023-02-27T07:38:05.438Z,5.25
2023-02-27T07:40:33.789Z,4.88
2023-02-27T07:43:03.445Z,5.00
2023-02-27T07:45:31.994Z,4.70
2023-02-27T07:48:00.207Z,5.10
2023-02-27T07:50:28.493Z,4.80
2023-02-27T07:52:56.908Z,5.18
2023-02-27T07:55:25.066Z,4.90
2023-02-27T07:57:53.194Z,4.50
2023-02-27T08:00:23.309Z,4.40
2023-02-27T08:02:51.642Z,4.43
2023-02-27T08:05:19.998Z,4.75
2023-02-27T08:07:48.349Z,4.63
2023-02-27T08:10:17.272Z,4.63
2023-02-27T08:12:46.036Z,4.43
2023-02-27T08:15:14.795Z,4.85
2023-02-27T08:17:46.014Z,4.95
2023-02-27T08:20:15.098Z,4.70
2023-02-27T08:22:44.058Z,4.68
2023-02-27T08:25:12.991Z,5.28
2023-02-27T08:27:41.278Z,5.35
2023-02-27T08:30:12.987Z,4.85
2023-02-27T08:32:43.431Z,4.65
2023-02-27T08:35:11.796Z,4.20
2023-02-27T08:37:40.115Z,4.55
2023-02-27T08:40:11.343Z,4.95
2023-02-27T08:42:40.348Z,4.78
2023-02-27T08:45:09.842Z,4.97
2023-02-27T08:47:38.437Z,5.05
2023-02-27T08:50:09.108Z,5.13
2023-02-27T08:52:37.254Z,4.68
2023-02-27T08:55:06.186Z,5.10
2023-02-27T08:57:34.604Z,4.57
2023-02-27T09:00:06.084Z,4.53
2023-02-27T09:02:34.992Z,4.88
2023-02-27T09:05:03.306Z,4.65
2023-02-27T09:07:34.555Z,4.85
2023-02-27T09:10:02.891Z,4.78
2023-02-27T09:12:31.032Z,4.45
2023-02-27T09:14:59.427Z,4.53
2023-02-27T09:17:27.779Z,4.88
2023-02-27T09:19:57.410Z,5.28
2023-02-27T09:22:26.033Z,4.68
2023-02-27T09:24:56.114Z,4.45
2023-02-27T09:27:25.994Z,4.45
2023-02-27T09:29:56.451Z,4.72
2023-02-27T09:32:25.425Z,4.32
2023-02-27T09:34:53.969Z,4.60
2023-02-27T09:37:24.939Z,4.10
2023-02-27T09:39:55.336Z,3.90
2023-02-27T09:42:26.763Z,3.83
2023-02-27T09:44:58.791Z,4.22
2023-02-27T09:47:30.446Z,3.90
2023-02-27T09:50:04.363Z,3.50
2023-02-27T09:52:34.241Z,3.20
2023-02-27T09:55:06.228Z,3.28
2023-02-27T09:57:45.275Z,3.22
2023-02-27T10:00:30.939Z,3.30
2023-02-27T10:03:09.155Z,3.38
2023-02-27T10:05:43.251Z,2.97
2023-02-27T10:08:18.581Z,2.72
2023-02-27T10:11:00.587Z,3.08
2023-02-27T10:13:43.999Z,2.80
2023-02-27T10:16:15.456Z,2.53
2023-02-27T10:18:52.108Z,2.60
2023-02-27T10:21:26.115Z,2.55
2023-02-27T10:24:00.620Z,2.25
2023-02-27T10:26:34.516Z,2.42
2023-02-27T10:29:14.979Z,2.55
2023-02-27T10:31:45.441Z,2.63
2023-02-27T10:34:16.350Z,2.42
2023-02-27T10:36:46.910Z,2.28
2023-02-27T10:39:18.416Z,3.03
2023-02-27T10:41:49.147Z,2.47
2023-02-27T10:44:18.832Z,2.10
2023-02-27T10:46:51.704Z,2.08
2023-02-27T10:49:22.165Z,2.13
2023-02-27T10:52:08.240Z,2.13
2023-02-27T10:54:37.242Z,2.58
2023-02-27T10:57:19.554Z,1.95
2023-02-27T10:59:54.095Z,2.10
2023-02-27T11:02:24.698Z,1.90
2023-02-27T11:04:55.284Z,1.60
2023-02-27T11:07:32.753Z,2.25
2023-02-27T11:10:04.492Z,2.15
2023-02-27T11:12:35.677Z,1.83
2023-02-27T11:15:22.230Z,2.10
2023-02-27T11:17:50.851Z,2.20
2023-02-27T11:20:37.490Z,2.05
2023-02-27T11:23:07.739Z,2.17
2023-02-27T11:25:36.356Z,2.40
2023-02-27T11:28:21.805Z,2.17
2023-02-27T11:30:58.658Z,2.22
2023-02-27T11:33:29.442Z,1.73
2023-02-27T11:35:59.630Z,1.92
2023-02-27T11:38:29.980Z,2.00
2023-02-27T11:40:59.584Z,2.00
2023-02-27T11:43:31.747Z,2.03
2023-02-27T11:46:04.275Z,2.00
2023-02-27T11:48:50.550Z,2.13
2023-02-27T11:51:33.466Z,1.95
2023-02-27T11:54:09.650Z,1.80
2023-02-27T11:56:41.004Z,2.08
2023-02-27T11:59:24.200Z,1.90
2023-02-27T12:01:57.013Z,2.30
2023-02-27T12:04:30.302Z,2.20
2023-02-27T12:07:04.510Z,2.10
2023-02-27T12:09:44.591Z,1.98
2023-02-27T12:12:22.078Z,1.95
2023-02-27T12:15:02.092Z,2.00
2023-02-27T12:17:36.663Z,2.22
2023-02-27T12:20:28.128Z,2.15
2023-02-27T12:22:57.554Z,2.08
2023-02-27T12:25:46.529Z,1.70
2023-02-27T12:28:24.910Z,1.80
2023-02-27T12:31:07.323Z,1.70
2023-02-27T12:33:42.442Z,1.80
2023-02-27T12:36:13.582Z,1.70
2023-02-27T12:38:42.358Z,1.45
2023-02-27T12:41:33.724Z,1.63
2023-02-27T12:44:24.440Z,1.60
2023-02-27T12:47:01.580Z,1.65
2023-02-27T12:49:42.309Z,1.80
2023-02-27T12:52:21.812Z,1.98
2023-02-27T12:54:58.675Z,1.88
2023-02-27T12:57:54.291Z,2.35
2023-02-27T13:00:26.671Z,1.50
2023-02-27T13:03:11.074Z,1.55
2023-02-27T13:05:47.427Z,1.98
2023-02-27T13:08:54.106Z,1.50
2023-02-27T13:11:31.371Z,1.67
2023-02-27T13:14:02.823Z,1.40
2023-02-27T13:16:35.303Z,1.50
2023-02-27T13:19:13.374Z,1.58
2023-02-27T13:21:48.578Z,1.55
2023-02-27T13:24:26.318Z,1.55
2023-02-27T13:27:00.484Z,1.35
2023-02-27T13:29:36.795Z,1.67
2023-02-27T13:32:27.271Z,1.80
2023-02-27T13:35:08.205Z,2.05
2023-02-27T13:37:54.471Z,1.90
2023-02-27T13:40:33.484Z,1.98
2023-02-27T13:43:06.086Z,1.50
2023-02-27T13:46:02.151Z,1.50
2023-02-27T13:48:45.208Z,1.60
2023-02-27T13:51:43.589Z,1.60
2023-02-27T13:54:21.722Z,1.55
2023-02-27T13:56:52.851Z,1.90
2023-02-27T13:59:24.114Z,1.45
2023-02-27T14:01:55.261Z,1.73
2023-02-27T14:04:26.468Z,1.80
2023-02-27T14:07:01.804Z,2.00
2023-02-27T14:09:37.327Z,1.98
2023-02-27T14:12:08.577Z,1.63
2023-02-27T14:14:45.454Z,1.50
2023-02-27T14:17:15.699Z,1.80
2023-02-27T14:19:56.995Z,1.67
2023-02-27T14:22:37.384Z,1.80
2023-02-27T14:25:25.910Z,1.70
2023-02-27T14:27:57.268Z,1.60
2023-02-27T14:30:33.663Z,1.58
2023-02-27T14:33:08.873Z,2.00
2023-02-27T14:35:38.177Z,1.63
2023-02-27T14:38:13.143Z,1.67
2023-02-27T14:40:49.557Z,1.92
2023-02-27T14:43:29.233Z,1.63
2023-02-27T14:46:05.810Z,1.45
2023-02-27T14:48:37.933Z,1.40
2023-02-27T14:51:07.098Z,1.50
2023-02-27T14:53:36.661Z,1.67
2023-02-27T14:56:05.542Z,1.60
2023-02-27T14:58:34.222Z,1.90
2023-02-27T15:01:07.073Z,1.83
2023-02-27T15:03:42.073Z,1.80
2023-02-27T15:06:19.751Z,1.70
2023-02-27T15:08:52.437Z,1.75
2023-02-27T15:11:23.362Z,1.77
2023-02-27T15:13:58.327Z,1.70
2023-02-27T15:16:36.731Z,1.73
2023-02-27T15:19:16.235Z,1.90
2023-02-27T15:21:47.078Z,1.63
2023-02-27T15:24:31.277Z,1.92
2023-02-27T15:27:03.444Z,1.60
2023-02-27T15:29:35.922Z,1.75
2023-02-27T15:32:05.285Z,1.70
2023-02-27T15:34:34.928Z,2.22
2023-02-27T15:37:06.988Z,1.90
2023-02-27T15:39:37.846Z,2.33
2023-02-27T15:42:07.695Z,2.47
2023-02-27T15:44:41.431Z,2.70
2023-02-27T15:49:40.603Z,2.63
2023-02-27T15:52:18.029Z,2.25
2023-02-27T15:54:53.176Z,2.00
2023-02-27T15:57:24.192Z,2.13
2023-02-27T15:59:53.499Z,2.13
2023-02-27T16:02:24.967Z,2.70
2023-02-27T16:04:54.241Z,3.17
2023-02-27T16:07:25.520Z,3.08
2023-02-27T16:10:01.143Z,3.10
2023-02-27T16:12:32.633Z,3.47
2023-02-27T16:15:35.865Z,3.90
2023-02-27T16:18:19.635Z,3.88
2023-02-27T16:20:52.316Z,3.10
2023-02-27T16:23:24.091Z,3.03
2023-02-27T16:26:06.401Z,3.10
2023-02-27T16:28:36.761Z,3.30
2023-02-27T16:31:24.083Z,3.40
2023-02-27T16:33:53.251Z,4.53
2023-02-27T16:36:23.229Z,4.95
2023-02-27T16:38:52.064Z,5.68
2023-02-27T16:41:23.405Z,5.82
2023-02-27T16:43:53.853Z,5.53
2023-02-27T16:46:22.489Z,6.55
2023-02-27T16:48:53.233Z,6.82
2023-02-27T16:51:23.885Z,7.15
2023-02-27T16:53:52.514Z,6.75
2023-02-27T16:56:35.766Z,5.75
2023-02-27T16:59:05.782Z,5.47
2023-02-27T17:01:34.446Z,5.57
2023-02-27T17:04:05.249Z,5.30
2023-02-27T17:06:37.188Z,4.30
2023-02-27T17:09:05.517Z,5.30
2023-02-27T17:11:35.074Z,5.10
2023-02-27T17:14:03.569Z,4.90
2023-02-27T17:16:31.827Z,4.18
2023-02-27T17:19:00.058Z,4.15
2023-02-27T17:21:29.138Z,3.88
2023-02-27T17:23:57.274Z,4.18
2023-02-27T17:26:27.142Z,3.70
2023-02-27T17:28:57.882Z,3.40
2023-02-27T17:31:26.424Z,2.95
2023-02-27T17:33:55.848Z,3.25
2023-02-27T17:36:25.201Z,3.15
2023-02-27T17:38:56.965Z,3.72
2023-02-27T17:41:25.593Z,3.20
2023-02-27T17:43:55.526Z,4.45
2023-02-27T17:46:26.925Z,3.78
2023-02-27T17:48:56.372Z,3.60
2023-02-27T17:51:24.570Z,3.33
2023-02-27T17:53:52.999Z,3.13
2023-02-27T17:56:21.653Z,3.70
2023-02-27T17:58:49.972Z,2.88
2023-02-27T18:01:20.476Z,2.83
2023-02-27T18:03:50.600Z,2.75
2023-02-27T18:06:19.569Z,3.20
2023-02-27T18:08:47.800Z,3.60
2023-02-27T18:11:18.581Z,3.63
2023-02-27T18:13:47.911Z,4.07
2023-02-27T18:16:16.591Z,3.97
2023-02-27T18:18:45.085Z,4.03
2023-02-27T18:21:17.080Z,4.10
2023-02-27T18:23:46.350Z,3.83
2023-02-27T18:26:32.477Z,4.05
2023-02-27T18:29:02.532Z,3.75
2023-02-27T18:31:32.761Z,3.97
2023-02-27T18:34:01.256Z,3.67
2023-02-27T18:36:32.265Z,3.72
2023-02-27T18:39:01.126Z,3.50
2023-02-27T18:41:30.226Z,3.63
2023-02-27T18:43:59.752Z,3.70
2023-02-27T18:46:29.245Z,4.43
2023-02-27T18:48:57.779Z,3.58
2023-02-27T18:51:26.665Z,3.30
2023-02-27T18:53:56.244Z,3.72
2023-02-27T18:56:27.438Z,3.72
2023-02-27T18:59:02.093Z,3.35
2023-02-27T19:01:32.401Z,3.90
2023-02-27T19:04:03.874Z,3.88
2023-02-27T19:06:33.178Z,4.82
2023-02-27T19:09:05.196Z,4.18
2023-02-27T19:11:34.556Z,4.65
2023-02-27T19:14:03.707Z,4.22
2023-02-27T19:16:32.676Z,4.22
2023-02-27T19:19:03.251Z,4.60
2023-02-27T19:21:32.274Z,4.95
2023-02-27T19:24:00.466Z,9.80
2023-02-27T19:26:30.848Z,12.48
2023-02-27T19:28:59.713Z,9.02
2023-02-27T19:31:28.671Z,6.50
2023-02-27T19:33:57.211Z,6.32
2023-02-27T19:36:27.402Z,5.80
2023-02-27T19:38:56.257Z,5.68
2023-02-27T19:41:24.887Z,5.45
2023-02-27T19:43:55.419Z,6.05
2023-02-27T19:46:26.013Z,5.97
2023-02-27T19:48:57.693Z,6.40
2023-02-27T19:51:26.443Z,5.93
2023-02-27T19:53:54.913Z,6.50
2023-02-27T19:56:27.166Z,6.35
2023-02-27T19:58:57.773Z,6.20
2023-02-27T20:01:28.391Z,6.60
2023-02-27T20:03:57.389Z,6.60
2023-02-27T20:06:27.467Z,7.82
2023-02-27T20:08:59.997Z,8.85
2023-02-27T20:11:31.282Z,7.57
2023-02-27T20:14:01.770Z,7.18
2023-02-27T20:16:34.417Z,6.65
2023-02-27T20:19:04.003Z,5.80
2023-02-27T20:21:33.168Z,6.97
2023-02-27T20:24:01.815Z,6.95
2023-02-27T20:26:32.475Z,6.57
2023-02-27T20:29:05.007Z,6.60
2023-02-27T20:31:35.268Z,6.47
2023-02-27T20:34:06.090Z,7.28
2023-02-27T20:36:35.592Z,6.00
2023-02-27T20:39:04.844Z,6.03
2023-02-27T20:41:34.811Z,6.28
2023-02-27T20:44:05.219Z,6.45
2023-02-27T20:46:33.400Z,5.93
2023-02-27T20:49:04.840Z,6.32
2023-02-27T20:51:36.127Z,6.63
2023-02-27T20:54:06.803Z,6.65
2023-02-27T20:56:37.991Z,7.25
2023-02-27T20:59:09.449Z,7.88
2023-02-27T21:01:38.619Z,8.05
2023-02-27T21:04:07.073Z,7.95
2023-02-27T21:06:35.593Z,7.82
2023-02-27T21:09:07.270Z,8.35
2023-02-27T21:11:35.911Z,8.32
2023-02-27T21:14:09.247Z,8.57
2023-02-27T21:16:37.985Z,7.95
2023-02-27T21:19:07.365Z,8.00
2023-02-27T21:21:36.791Z,8.25
2023-02-27T21:24:06.152Z,7.93
2023-02-27T21:26:38.010Z,7.28
2023-02-27T21:29:10.747Z,11.50
2023-02-27T21:31:40.733Z,11.00
2023-02-27T21:34:12.883Z,9.68
2023-02-27T21:36:43.614Z,8.35
2023-02-27T21:39:15.643Z,8.50
2023-02-27T21:41:44.369Z,8.30
2023-02-27T21:44:15.379Z,8.10
2023-02-27T21:46:43.520Z,8.55
2023-02-27T21:49:17.603Z,8.48
2023-02-27T21:51:46.118Z,8.00
2023-02-27T21:54:15.363Z,8.63
2023-02-27T21:56:45.048Z,7.43
2023-02-27T21:59:15.169Z,7.75
2023-02-27T22:01:47.359Z,7.63
2023-02-27T22:04:16.259Z,8.32
2023-02-27T22:06:44.673Z,7.88
2023-02-27T22:09:13.363Z,8.48
2023-02-27T22:11:41.933Z,8.25
2023-02-27T22:14:11.823Z,7.57
2023-02-27T22:16:42.277Z,8.05
2023-02-27T22:19:12.708Z,8.00
2023-02-27T22:21:42.014Z,7.65
2023-02-27T22:24:10.656Z,8.10
2023-02-27T22:26:39.179Z,8.18
2023-02-27T22:29:08.109Z,7.50
2023-02-27T22:31:38.277Z,7.40
2023-02-27T22:34:09.879Z,8.35
2023-02-27T22:36:38.258Z,8.02
2023-02-27T22:39:07.434Z,8.00
2023-02-27T22:41:38.114Z,8.15
2023-02-27T22:44:07.046Z,8.02
2023-02-27T22:46:37.322Z,8.20
2023-02-27T22:49:09.180Z,7.97
2023-02-27T22:51:37.677Z,7.70
2023-02-27T22:54:07.669Z,13.25
2023-02-27T22:56:36.775Z,9.65
2023-02-27T22:59:05.945Z,8.30
2023-02-27T23:01:35.745Z,7.90
2023-02-27T23:04:06.050Z,7.80
2023-02-27T23:06:38.956Z,8.45
2023-02-27T23:09:09.352Z,7.45
2023-02-27T23:11:37.764Z,8.77
2023-02-27T23:14:05.987Z,8.07
2023-02-27T23:16:34.299Z,9.10
2023-02-27T23:19:02.981Z,9.13
2023-02-27T23:21:35.438Z,9.05
2023-02-27T23:24:06.978Z,9.48
2023-02-27T23:26:37.632Z,10.10
2023-02-27T23:29:06.259Z,9.25
2023-02-27T23:31:35.784Z,9.73
2023-02-27T23:34:04.908Z,9.40
2023-02-27T23:36:33.462Z,9.02
2023-02-27T23:39:02.934Z,9.18
2023-02-27T23:41:33.549Z,9.45
2023-02-27T23:44:19.347Z,9.27
2023-02-27T23:46:47.581Z,8.70
2023-02-27T23:49:15.861Z,9.27
2023-02-27T23:51:44.045Z,9.10
2023-02-27T23:54:12.285Z,9.27
2023-02-27T23:56:42.169Z,9.00
2023-02-27T23:59:10.491Z,8.50
